createdAt,value
2023-08-11T19:58:56.627Z,44.20
2023-08-11T19:59:59.006Z,44.23
2023-08-11T20:01:01.308Z,44.67
2023-08-11T20:02:03.892Z,44.52
2023-08-11T20:03:08.450Z,44.39
2023-08-11T20:04:10.676Z,44.58
2023-08-11T20:05:12.934Z,44.66
2023-08-11T20:06:15.103Z,44.60
2023-08-11T20:07:17.132Z,44.63
2023-08-11T20:08:19.379Z,44.54
2023-08-11T20:09:23.557Z,44.53
2023-08-11T20:10:25.847Z,44.47
2023-08-11T20:11:27.911Z,44.59
2023-08-11T20:12:29.890Z,44.99
2023-08-11T20:13:31.969Z,44.55
2023-08-11T20:14:34.012Z,44.91
2023-08-11T20:15:36.153Z,44.76
2023-08-11T20:16:38.152Z,44.88
2023-08-11T20:17:40.256Z,44.84
2023-08-11T20:18:42.316Z,45.03
2023-08-11T20:19:44.311Z,44.97
2023-08-11T20:20:46.563Z,44.90
2023-08-11T20:21:49.501Z,44.76
2023-08-11T20:22:51.802Z,44.89
2023-08-11T20:23:53.829Z,44.79
2023-08-11T20:24:55.910Z,44.92
2023-08-11T20:25:58.064Z,45.11
2023-08-11T20:27:00.195Z,44.98
2023-08-11T20:28:02.210Z,45.03
2023-08-11T20:29:04.540Z,45.11
2023-08-11T20:30:07.468Z,45.38
2023-08-11T20:31:09.584Z,45.22
2023-08-11T20:32:11.727Z,45.09
2023-08-11T20:33:13.763Z,45.13
2023-08-11T20:34:15.990Z,45.38
2023-08-11T20:35:18.376Z,45.38
2023-08-11T20:36:20.401Z,45.51
2023-08-11T20:37:22.499Z,45.31
2023-08-11T20:38:24.591Z,45.33
2023-08-11T20:39:27.440Z,45.32
2023-08-11T20:40:29.536Z,45.42
2023-08-11T20:41:31.566Z,45.36
2023-08-11T20:42:35.093Z,45.31
2023-08-11T20:43:37.199Z,45.85
2023-08-11T20:44:39.278Z,45.62
2023-08-11T20:45:41.344Z,45.49
2023-08-11T20:46:43.588Z,45.72
2023-08-11T20:47:45.710Z,46.10
2023-08-11T20:48:47.825Z,45.55
2023-08-11T20:49:50.078Z,46.00
2023-08-11T20:50:52.725Z,46.06
2023-08-11T20:51:57.055Z,46.00
2023-08-11T20:52:59.175Z,45.75
2023-08-11T20:54:01.137Z,46.00
2023-08-11T20:55:03.741Z,46.26
2023-08-11T20:56:06.157Z,46.19
2023-08-11T20:57:10.004Z,45.97
2023-08-11T20:58:12.290Z,46.64
2023-08-11T20:59:14.314Z,46.61
2023-08-11T21:00:16.659Z,46.41
2023-08-11T21:01:18.822Z,46.36
2023-08-11T21:02:20.851Z,46.60
2023-08-11T21:03:22.949Z,46.75
2023-08-11T21:04:25.162Z,46.52
2023-08-11T21:05:27.260Z,46.56
2023-08-11T21:06:32.173Z,46.71
2023-08-11T21:07:34.382Z,46.80
2023-08-11T21:08:36.430Z,46.94
2023-08-11T21:09:38.462Z,46.97
2023-08-11T21:10:46.705Z,46.93
2023-08-11T21:11:49.348Z,46.92
2023-08-11T21:12:52.065Z,47.43
2023-08-11T21:13:56.006Z,47.55
2023-08-11T21:14:58.035Z,47.79
2023-08-11T21:16:00.047Z,47.24
2023-08-11T21:17:03.640Z,47.49
2023-08-11T21:18:07.278Z,47.89
2023-08-11T21:19:09.335Z,47.86
2023-08-11T21:20:11.831Z,47.95
2023-08-11T21:21:13.993Z,47.69
2023-08-11T21:22:16.137Z,47.88
2023-08-11T21:23:20.387Z,47.85
2023-08-11T21:24:22.618Z,48.20
2023-08-11T21:25:24.690Z,48.30
2023-08-11T21:26:26.871Z,48.16
2023-08-11T21:27:29.250Z,48.00
2023-08-11T21:28:31.275Z,48.48
2023-08-11T21:29:33.340Z,48.22
2023-08-11T21:30:35.538Z,47.75
2023-08-11T21:31:37.579Z,48.03
2023-08-11T21:32:39.718Z,48.08
2023-08-11T21:33:41.812Z,48.76
2023-08-11T21:34:43.919Z,48.43
2023-08-11T21:35:45.948Z,48.60
2023-08-11T21:36:47.955Z,48.07
2023-08-11T21:37:50.421Z,48.50
2023-08-11T21:38:52.421Z,48.62
2023-08-11T21:39:54.429Z,49.12
2023-08-11T21:40:56.890Z,49.34
2023-08-11T21:41:58.877Z,49.58
2023-08-11T21:43:01.053Z,49.49
2023-08-11T21:44:04.061Z,50.00
2023-08-11T21:45:06.704Z,50.17
2023-08-11T21:46:08.720Z,49.72
2023-08-11T21:47:11.093Z,50.04
2023-08-11T21:48:13.462Z,50.09
2023-08-11T21:49:15.548Z,49.84
2023-08-11T21:50:17.589Z,50.71
2023-08-11T21:51:19.760Z,50.80
2023-08-11T21:52:21.806Z,50.89
2023-08-11T21:53:24.174Z,50.33
2023-08-11T21:54:26.390Z,50.66
2023-08-11T21:55:28.349Z,50.45
2023-08-11T21:56:30.529Z,50.00
2023-08-11T21:57:32.870Z,50.96
2023-08-11T21:58:35.456Z,50.31
2023-08-11T21:59:42.200Z,49.92
2023-08-11T22:00:45.175Z,50.51
2023-08-11T22:01:47.343Z,50.48
2023-08-11T22:02:49.366Z,50.26
2023-08-11T22:03:51.469Z,50.38
2023-08-11T22:04:53.512Z,50.66
2023-08-11T22:05:55.786Z,51.24
2023-08-11T22:06:57.978Z,50.73
2023-08-11T22:08:00.089Z,51.54
2023-08-11T22:09:04.101Z,50.92
2023-08-11T22:10:06.587Z,51.75
2023-08-11T22:11:15.688Z,51.03
2023-08-11T22:12:24.602Z,51.29
2023-08-11T22:13:26.692Z,51.32
2023-08-11T22:14:28.824Z,51.49
2023-08-11T22:15:30.883Z,51.53
2023-08-11T22:16:34.544Z,51.47
2023-08-11T22:17:36.665Z,51.81
2023-08-11T22:18:38.721Z,51.78
2023-08-11T22:19:46.864Z,52.12
2023-08-11T22:20:48.934Z,52.49
2023-08-11T22:21:51.855Z,52.00
2023-08-11T22:22:53.828Z,52.33
2023-08-11T22:23:55.939Z,52.33
2023-08-11T22:25:01.646Z,52.26
2023-08-11T22:26:03.772Z,51.86
2023-08-11T22:27:06.096Z,52.51
2023-08-11T22:28:08.424Z,52.25
2023-08-11T22:29:10.404Z,52.48
2023-08-11T22:30:13.698Z,52.31
2023-08-11T22:31:15.874Z,52.58
2023-08-11T22:32:17.905Z,52.58
2023-08-11T22:33:20.410Z,52.85
2023-08-11T22:34:22.434Z,52.42
2023-08-11T22:35:24.893Z,52.95
2023-08-11T22:36:27.009Z,53.29
2023-08-11T22:37:29.081Z,53.05
2023-08-11T22:38:31.127Z,53.41
2023-08-11T22:39:33.075Z,53.84
2023-08-11T22:40:35.162Z,53.91
2023-08-11T22:41:37.344Z,53.87
2023-08-11T22:42:39.383Z,54.06
2023-08-11T22:43:41.429Z,53.48
2023-08-11T22:44:43.507Z,53.61
2023-08-11T22:45:45.856Z,53.61
2023-08-11T22:46:48.248Z,53.31
2023-08-11T22:47:51.347Z,53.67
2023-08-11T22:48:53.457Z,53.25
2023-08-11T22:49:56.848Z,53.33
2023-08-11T22:50:58.969Z,53.57
2023-08-11T22:52:00.980Z,53.19
2023-08-11T22:53:04.278Z,53.18
2023-08-11T22:54:06.392Z,53.32
2023-08-11T22:55:09.513Z,53.45
2023-08-11T22:56:11.644Z,53.66
2023-08-11T22:57:13.974Z,53.45
2023-08-11T22:58:16.327Z,53.55
2023-08-11T22:59:20.966Z,53.76
2023-08-11T23:00:23.073Z,53.11
2023-08-11T23:01:25.327Z,53.12
2023-08-11T23:02:27.408Z,53.25
2023-08-11T23:03:29.646Z,53.17
2023-08-11T23:04:31.719Z,53.16
2023-08-11T23:05:34.252Z,53.22
2023-08-11T23:06:36.296Z,53.08
2023-08-11T23:07:41.815Z,53.24
2023-08-11T23:08:43.911Z,53.62
2023-08-11T23:09:45.900Z,52.94
2023-08-11T23:10:48.352Z,53.68
2023-08-11T23:11:50.412Z,53.39
2023-08-11T23:12:52.641Z,53.67
2023-08-11T23:13:54.663Z,53.27
2023-08-11T23:14:57.308Z,53.37
2023-08-11T23:16:01.095Z,53.57
2023-08-11T23:17:03.001Z,53.03
2023-08-11T23:18:05.498Z,53.38
2023-08-11T23:19:07.630Z,53.53
2023-08-11T23:20:10.439Z,53.29
2023-08-11T23:21:12.601Z,53.54
2023-08-11T23:22:14.671Z,53.89
2023-08-11T23:23:16.794Z,53.60
2023-08-11T23:24:19.130Z,53.62
2023-08-11T23:25:21.241Z,53.50
2023-08-11T23:26:23.301Z,53.41
2023-08-11T23:27:31.887Z,53.66
2023-08-11T23:28:34.186Z,53.53
2023-08-11T23:29:36.276Z,53.71
2023-08-11T23:30:38.281Z,53.83
2023-08-11T23:31:42.898Z,54.09
2023-08-11T23:32:45.494Z,54.14
2023-08-11T23:33:47.825Z,54.16
2023-08-11T23:34:49.801Z,54.53
2023-08-11T23:35:51.856Z,54.05
2023-08-11T23:36:53.856Z,54.28
2023-08-11T23:37:55.923Z,54.45
2023-08-11T23:38:58.031Z,54.35
2023-08-11T23:40:00.191Z,55.16
2023-08-11T23:41:02.167Z,55.27
2023-08-11T23:42:05.437Z,55.58
2023-08-11T23:43:07.911Z,55.68
2023-08-11T23:44:10.007Z,55.50
2023-08-11T23:45:13.385Z,55.02
2023-08-11T23:46:15.779Z,55.16
2023-08-11T23:47:18.312Z,55.52
2023-08-11T23:48:20.660Z,55.79
2023-08-11T23:49:22.798Z,55.24
2023-08-11T23:50:25.106Z,56.00
2023-08-11T23:51:28.615Z,55.79
2023-08-11T23:52:31.286Z,55.65
2023-08-11T23:53:33.279Z,55.83
2023-08-11T23:54:35.481Z,56.15
2023-08-11T23:55:38.193Z,56.03
2023-08-11T23:56:40.254Z,56.35
2023-08-11T23:57:42.856Z,56.36
2023-08-11T23:58:45.029Z,56.63
2023-08-11T23:59:47.082Z,56.41
